Artesia, California
Current Conditions -  °F | °C
As of 9:53 PM on Sunday 25 Jan 2015 (Local Time) from KFUL Reporting Station
Clear Clear  
Wind Chill: 65°   Ceiling: Unl
Heat Index: 65°   Visibility: 10mi
Dew Point: 33°   Wind: 0mph
Humidity: 31%   Direction: NA
Pressure: 30.03"   Gusts: NA
Location:  33.86°N, 118.07°W
Report Text: KFUL 260553Z 00000KT 10SM CLR 18/01 A3003 RMK AO2 SLP168 T01830006 10283 20167 51007
Loading
Personal Weather Stations






























Interactive Weather Map New forecast layout! Learn more

10-Day Weather Forecast

Advertisements
Track Severe Weather on mobile